createdAt,value
2022-10-14T00:00:19.483Z,0.00
2022-10-14T00:01:19.470Z,0.00
2022-10-14T00:02:19.507Z,0.00
2022-10-14T00:03:19.453Z,0.00
2022-10-14T00:04:19.440Z,0.00
2022-10-14T00:05:19.390Z,0.00
2022-10-14T00:06:19.408Z,0.00
2022-10-14T00:07:19.757Z,0.00
2022-10-14T00:08:19.398Z,0.00
2022-10-14T00:09:19.371Z,0.00
2022-10-14T00:10:19.384Z,0.00
2022-10-14T00:11:19.315Z,0.00
2022-10-14T00:12:19.307Z,0.00
2022-10-14T00:13:19.287Z,0.00
2022-10-14T00:14:19.291Z,0.00
2022-10-14T00:15:19.291Z,0.00
2022-10-14T00:16:19.380Z,0.00
2022-10-14T00:17:19.637Z,0.00
2022-10-14T00:18:19.232Z,0.00
2022-10-14T00:19:19.230Z,0.00
2022-10-14T00:20:19.197Z,0.00
2022-10-14T00:21:19.168Z,0.00
2022-10-14T00:22:19.208Z,0.00
2022-10-14T00:23:19.152Z,0.00
2022-10-14T00:24:19.157Z,0.00
2022-10-14T00:25:19.118Z,0.00
2022-10-14T00:26:19.183Z,0.00
2022-10-14T00:27:19.474Z,0.00
2022-10-14T00:28:19.188Z,0.00
2022-10-14T00:29:19.139Z,0.00
2022-10-14T00:30:19.085Z,0.00
2022-10-14T00:31:19.050Z,0.00
2022-10-14T00:32:19.038Z,0.00
2022-10-14T00:33:19.023Z,0.00
2022-10-14T00:34:19.063Z,0.00
2022-10-14T00:35:19.021Z,0.00
2022-10-14T00:36:19.011Z,0.00
2022-10-14T00:37:19.334Z,0.00
2022-10-14T00:38:18.964Z,0.00
2022-10-14T00:39:18.943Z,0.00
2022-10-14T00:40:19.043Z,0.00
2022-10-14T00:41:18.913Z,0.00
2022-10-14T00:42:18.902Z,0.00
2022-10-14T00:43:18.904Z,0.00
2022-10-14T00:44:18.881Z,0.00
2022-10-14T00:45:18.861Z,0.00
2022-10-14T00:46:18.931Z,0.00
2022-10-14T00:47:19.128Z,0.00
2022-10-14T00:48:18.860Z,0.00
2022-10-14T00:49:18.817Z,0.00
2022-10-14T00:50:18.806Z,0.00
2022-10-14T00:51:18.779Z,0.00
2022-10-14T00:52:18.821Z,0.00
2022-10-14T00:53:18.751Z,0.00
2022-10-14T00:54:18.771Z,0.00
2022-10-14T00:55:18.738Z,0.00
2022-10-14T00:56:18.722Z,0.00
2022-10-14T00:57:19.017Z,0.00
2022-10-14T00:58:18.742Z,0.00
2022-10-14T00:59:18.715Z,0.00
2022-10-14T01:00:18.760Z,0.00
2022-10-14T01:01:18.680Z,0.00
2022-10-14T01:02:18.655Z,0.00
2022-10-14T01:03:18.715Z,0.00
2022-10-14T01:04:18.645Z,0.00
2022-10-14T01:05:18.599Z,0.00
2022-10-14T01:06:18.594Z,0.00
2022-10-14T01:07:18.731Z,0.00
2022-10-14T01:08:18.567Z,0.00
2022-10-14T01:09:18.529Z,0.00
2022-10-14T01:10:18.565Z,0.00
2022-10-14T01:11:18.570Z,0.00
2022-10-14T01:12:33.818Z,0.00
2022-10-14T01:13:18.486Z,0.00
2022-10-14T01:14:18.497Z,0.00
2022-10-14T01:15:18.454Z,0.00
2022-10-14T01:16:18.518Z,0.00
2022-10-14T01:17:18.439Z,0.00
2022-10-14T01:18:18.458Z,0.00
2022-10-14T01:19:18.421Z,0.00
2022-10-14T01:20:18.403Z,0.00
2022-10-14T01:21:18.370Z,0.00
2022-10-14T01:22:22.176Z,0.00
2022-10-14T01:23:18.371Z,0.00
2022-10-14T01:24:18.340Z,0.00
2022-10-14T01:25:18.314Z,0.00
2022-10-14T01:26:18.325Z,0.00
2022-10-14T01:27:18.328Z,0.00
2022-10-14T01:28:18.365Z,0.00
2022-10-14T01:29:18.262Z,0.00
2022-10-14T01:30:18.283Z,0.00
2022-10-14T01:31:18.243Z,0.00
2022-10-14T01:32:18.278Z,0.00
2022-10-14T01:33:18.209Z,0.00
2022-10-14T01:34:18.256Z,0.00
2022-10-14T01:35:18.190Z,0.00
2022-10-14T01:36:18.181Z,0.00
2022-10-14T01:37:18.176Z,0.00
2022-10-14T01:38:18.193Z,0.00
2022-10-14T01:39:18.125Z,0.00
2022-10-14T01:40:18.177Z,0.00
2022-10-14T01:41:18.115Z,0.00
2022-10-14T01:42:18.301Z,0.00
2022-10-14T01:43:18.124Z,0.00
2022-10-14T01:44:18.087Z,0.00
2022-10-14T01:45:18.056Z,0.00
2022-10-14T01:46:18.073Z,0.00
2022-10-14T01:47:18.080Z,0.00
2022-10-14T01:48:18.055Z,0.00
2022-10-14T01:49:17.991Z,0.00
2022-10-14T01:50:17.990Z,0.00
2022-10-14T01:51:18.000Z,0.00
2022-10-14T01:52:18.010Z,0.00
2022-10-14T01:53:17.965Z,0.00
2022-10-14T01:54:17.942Z,0.00
2022-10-14T01:55:17.929Z,0.00
2022-10-14T01:56:17.937Z,0.00
2022-10-14T01:57:17.900Z,0.00
2022-10-14T01:58:17.961Z,0.00
2022-10-14T01:59:17.856Z,0.00
2022-10-14T02:00:17.897Z,0.00
2022-10-14T02:01:17.863Z,0.00
2022-10-14T02:02:17.850Z,0.00
2022-10-14T02:03:17.814Z,0.00
2022-10-14T02:04:17.833Z,0.00
2022-10-14T02:05:17.817Z,0.00
2022-10-14T02:06:17.786Z,0.00
2022-10-14T02:07:17.843Z,0.00
2022-10-14T02:08:17.785Z,0.00
2022-10-14T02:09:17.736Z,0.00
2022-10-14T02:10:17.760Z,0.00
2022-10-14T02:11:17.719Z,0.00
2022-10-14T02:12:17.703Z,0.00
2022-10-14T02:13:17.693Z,0.00
2022-10-14T02:14:17.694Z,0.00
2022-10-14T02:15:17.648Z,0.00
2022-10-14T02:16:17.708Z,0.00
2022-10-14T02:17:17.647Z,0.00
2022-10-14T02:18:17.638Z,0.00
2022-10-14T02:19:17.602Z,0.00
2022-10-14T02:20:17.619Z,0.00
2022-10-14T02:21:17.561Z,0.00
2022-10-14T02:22:17.647Z,0.00
2022-10-14T02:23:17.541Z,0.00
2022-10-14T02:24:17.561Z,0.00
2022-10-14T02:25:17.531Z,0.00
2022-10-14T02:26:17.541Z,0.00
2022-10-14T02:27:17.507Z,0.00
2022-10-14T02:28:17.557Z,0.00
2022-10-14T02:29:17.463Z,0.00
2022-10-14T02:30:17.464Z,0.00
2022-10-14T02:31:17.436Z,0.00
2022-10-14T02:32:17.442Z,0.00
2022-10-14T02:33:17.419Z,0.00
2022-10-14T02:34:17.453Z,0.00
2022-10-14T02:35:17.382Z,0.00
2022-10-14T02:36:17.381Z,0.00
2022-10-14T02:37:17.387Z,0.00
2022-10-14T02:38:17.375Z,0.00
2022-10-14T02:39:17.340Z,0.00
2022-10-14T02:40:17.345Z,0.00
2022-10-14T02:41:17.309Z,0.00
2022-10-14T02:42:17.310Z,0.00
2022-10-14T02:43:17.280Z,0.00
2022-10-14T02:44:17.276Z,0.00
2022-10-14T02:45:17.332Z,0.00
2022-10-14T02:46:17.287Z,0.00
2022-10-14T02:47:17.230Z,0.00
2022-10-14T02:48:17.235Z,0.00
2022-10-14T02:49:17.194Z,0.00
2022-10-14T02:50:17.204Z,0.00
2022-10-14T02:51:17.173Z,0.00
2022-10-14T02:52:17.225Z,0.00
2022-10-14T02:53:17.144Z,0.00
2022-10-14T02:54:17.139Z,0.00
2022-10-14T02:55:17.154Z,0.00
2022-10-14T02:56:17.118Z,0.00
2022-10-14T02:57:17.099Z,0.00
2022-10-14T02:58:17.121Z,0.00
2022-10-14T02:59:17.145Z,0.00
2022-10-14T03:00:17.080Z,0.00
2022-10-14T03:01:17.145Z,0.00
2022-10-14T03:02:17.080Z,0.00
2022-10-14T03:03:17.030Z,0.00
2022-10-14T03:04:17.050Z,0.00
2022-10-14T03:05:16.985Z,0.00
2022-10-14T03:06:17.074Z,0.00
2022-10-14T03:07:17.027Z,0.00
2022-10-14T03:08:16.980Z,0.00
2022-10-14T03:09:17.069Z,0.00
2022-10-14T03:10:16.955Z,0.00
2022-10-14T03:11:16.942Z,0.00
2022-10-14T03:12:16.938Z,0.00
2022-10-14T03:13:16.929Z,0.00
2022-10-14T03:14:16.893Z,0.00
2022-10-14T03:15:16.860Z,0.00
2022-10-14T03:16:16.901Z,0.00
2022-10-14T03:17:16.883Z,0.00
2022-10-14T03:18:16.925Z,0.00
2022-10-14T03:19:24.316Z,0.00
2022-10-14T03:20:16.775Z,0.00
2022-10-14T03:21:16.767Z,0.00
2022-10-14T03:22:16.790Z,0.00
2022-10-14T03:23:16.762Z,0.00
2022-10-14T03:24:16.744Z,0.00
2022-10-14T03:25:16.720Z,0.00
2022-10-14T03:26:16.693Z,0.00
2022-10-14T03:27:16.701Z,0.00
2022-10-14T03:28:16.850Z,0.00
2022-10-14T03:29:16.666Z,0.00
2022-10-14T03:30:16.717Z,0.00
2022-10-14T03:31:16.700Z,0.00
2022-10-14T03:32:16.632Z,0.00
2022-10-14T03:33:20.407Z,0.00
2022-10-14T03:34:16.621Z,0.00
2022-10-14T03:35:16.595Z,0.00
2022-10-14T03:36:16.594Z,0.00
2022-10-14T03:37:16.592Z,0.00
2022-10-14T03:38:16.548Z,0.00
2022-10-14T03:39:16.689Z,0.00
2022-10-14T03:40:16.550Z,0.00
2022-10-14T03:41:16.506Z,0.00
2022-10-14T03:42:16.634Z,0.00
2022-10-14T03:43:16.495Z,0.00
2022-10-14T03:44:16.461Z,0.00
2022-10-14T03:45:16.457Z,0.00
2022-10-14T03:46:16.578Z,0.00
2022-10-14T03:47:16.436Z,0.00
2022-10-14T03:48:16.426Z,0.00
2022-10-14T03:49:16.408Z,0.00
2022-10-14T03:50:16.437Z,0.00
2022-10-14T03:51:16.381Z,0.00
2022-10-14T03:52:16.381Z,0.00
2022-10-14T03:53:16.358Z,0.00
2022-10-14T03:54:16.332Z,0.00
2022-10-14T03:55:16.331Z,0.00
2022-10-14T03:56:16.292Z,0.00
2022-10-14T03:57:16.305Z,0.00
2022-10-14T03:58:16.299Z,0.00
2022-10-14T03:59:16.267Z,0.00
2022-10-14T04:00:16.284Z,0.00
2022-10-14T04:01:16.252Z,0.00
2022-10-14T04:02:16.214Z,0.00
2022-10-14T04:03:16.234Z,0.00
2022-10-14T04:04:16.243Z,0.00
2022-10-14T04:05:16.181Z,0.00
2022-10-14T04:06:16.168Z,0.00
2022-10-14T04:07:16.166Z,0.00
2022-10-14T04:08:16.162Z,0.00
2022-10-14T04:09:16.135Z,0.00
2022-10-14T04:10:16.128Z,0.00
2022-10-14T04:11:16.115Z,0.00
2022-10-14T04:12:16.090Z,0.00
2022-10-14T04:13:16.074Z,0.00
2022-10-14T04:14:16.051Z,0.00
2022-10-14T04:15:16.055Z,0.00
2022-10-14T04:16:16.058Z,0.00
2022-10-14T04:17:16.021Z,0.00
2022-10-14T04:18:16.046Z,0.00
2022-10-14T04:19:15.998Z,0.00
2022-10-14T04:20:15.968Z,0.00
2022-10-14T04:21:15.992Z,0.00
2022-10-14T04:22:16.004Z,0.00
2022-10-14T04:23:16.080Z,0.00
2022-10-14T04:24:15.939Z,0.00
2022-10-14T04:25:15.951Z,0.00
2022-10-14T04:26:15.922Z,0.00
2022-10-14T04:27:15.919Z,0.00
2022-10-14T04:28:15.951Z,0.00
2022-10-14T04:29:15.909Z,0.00
2022-10-14T04:30:15.836Z,0.00
2022-10-14T04:31:15.939Z,0.00
2022-10-14T04:32:15.827Z,0.00
2022-10-14T04:33:15.817Z,0.00
2022-10-14T04:34:15.854Z,0.00
2022-10-14T04:35:15.866Z,0.00
2022-10-14T04:36:15.790Z,0.00
2022-10-14T04:37:15.790Z,0.00
2022-10-14T04:38:15.732Z,0.00
2022-10-14T04:39:15.785Z,0.00
2022-10-14T04:40:15.765Z,0.00
2022-10-14T04:41:15.748Z,0.00
2022-10-14T04:42:15.723Z,0.00
2022-10-14T04:43:15.701Z,0.00
2022-10-14T04:44:15.663Z,0.00
2022-10-14T04:45:15.726Z,0.00
2022-10-14T04:46:15.897Z,0.00
2022-10-14T04:47:15.645Z,0.00
2022-10-14T04:48:15.645Z,0.00
2022-10-14T04:49:15.639Z,0.00
2022-10-14T04:50:15.572Z,0.00
2022-10-14T04:51:15.590Z,0.00
2022-10-14T04:52:15.617Z,0.00
2022-10-14T04:53:19.673Z,0.00
2022-10-14T04:54:15.521Z,0.00
2022-10-14T04:55:15.565Z,0.00
2022-10-14T04:56:15.591Z,0.00
2022-10-14T04:57:15.539Z,0.00
2022-10-14T04:58:15.600Z,0.00
2022-10-14T04:59:15.472Z,0.00
2022-10-14T05:00:15.443Z,0.00
2022-10-14T05:01:15.494Z,0.00
2022-10-14T05:02:15.512Z,0.00
2022-10-14T05:03:15.422Z,0.00
2022-10-14T05:04:15.488Z,0.00
2022-10-14T05:05:15.389Z,0.00
2022-10-14T05:06:15.382Z,0.00
2022-10-14T05:07:15.357Z,0.00
2022-10-14T05:08:15.373Z,0.00
2022-10-14T05:09:15.327Z,0.00
2022-10-14T05:10:15.337Z,0.00
2022-10-14T05:11:15.424Z,0.00
2022-10-14T05:12:15.285Z,0.00
2022-10-14T05:13:15.316Z,0.00
2022-10-14T05:14:15.275Z,0.00
2022-10-14T05:15:15.252Z,0.00
2022-10-14T05:16:15.259Z,0.00
2022-10-14T05:17:15.245Z,0.00
2022-10-14T05:18:15.198Z,0.00
2022-10-14T05:19:15.209Z,0.00
2022-10-14T05:20:15.177Z,0.00
2022-10-14T05:21:15.176Z,0.00
2022-10-14T05:22:15.278Z,0.00
2022-10-14T05:23:15.123Z,1.00
2022-10-14T05:24:15.082Z,1.00
2022-10-14T05:25:15.101Z,1.00
2022-10-14T05:26:15.033Z,1.00
2022-10-14T05:27:15.058Z,2.00
2022-10-14T05:28:15.243Z,2.00
2022-10-14T05:29:15.004Z,1.00
2022-10-14T05:30:15.046Z,0.00
2022-10-14T05:31:15.003Z,3.00
2022-10-14T05:32:14.950Z,2.00
2022-10-14T05:33:15.088Z,5.00
2022-10-14T05:34:14.981Z,4.00
2022-10-14T05:35:14.953Z,6.00
2022-10-14T05:36:14.898Z,5.00
2022-10-14T05:37:14.910Z,3.00
2022-10-14T05:38:14.886Z,6.00
2022-10-14T05:39:14.873Z,4.00
2022-10-14T05:40:14.946Z,5.00
2022-10-14T05:41:14.862Z,7.00
2022-10-14T05:42:14.928Z,9.00
2022-10-14T05:43:14.873Z,10.00
2022-10-14T05:44:14.796Z,11.00
2022-10-14T05:45:14.862Z,11.00
2022-10-14T05:46:14.845Z,18.00
2022-10-14T05:47:14.801Z,30.00
2022-10-14T05:48:14.739Z,19.00
2022-10-14T05:49:14.753Z,15.00
2022-10-14T05:50:14.722Z,15.00
2022-10-14T05:51:14.843Z,7.00
2022-10-14T05:52:14.725Z,14.00
2022-10-14T05:53:14.689Z,26.00
2022-10-14T05:54:14.660Z,33.00
2022-10-14T05:55:14.671Z,40.00
2022-10-14T05:56:14.670Z,33.00
2022-10-14T05:57:14.636Z,28.00
2022-10-14T05:58:14.632Z,43.00
2022-10-14T05:59:14.652Z,21.00
2022-10-14T06:00:14.591Z,40.00
2022-10-14T06:01:14.586Z,89.00
2022-10-14T06:02:14.595Z,105.00
2022-10-14T06:03:14.658Z,147.00
2022-10-14T06:04:14.554Z,92.00
2022-10-14T06:05:14.541Z,115.00
2022-10-14T06:06:14.504Z,148.00
2022-10-14T06:07:14.499Z,186.00
2022-10-14T06:08:14.482Z,195.00
2022-10-14T06:09:14.492Z,220.00
2022-10-14T06:10:14.476Z,203.00
2022-10-14T06:11:14.447Z,217.00
2022-10-14T06:12:14.468Z,215.00
2022-10-14T06:13:14.423Z,180.00
2022-10-14T06:14:14.395Z,231.00
2022-10-14T06:15:14.434Z,245.00
2022-10-14T06:16:14.401Z,259.00
2022-10-14T06:17:14.369Z,268.00
2022-10-14T06:18:14.397Z,231.00
2022-10-14T06:19:14.344Z,323.00
2022-10-14T06:20:14.311Z,350.00
2022-10-14T06:21:14.338Z,420.00
2022-10-14T06:22:14.312Z,382.00
2022-10-14T06:23:14.298Z,411.00
2022-10-14T06:24:14.271Z,429.00
2022-10-14T06:25:14.264Z,445.00
2022-10-14T06:26:14.250Z,457.00
2022-10-14T06:27:14.270Z,529.00
2022-10-14T06:28:14.321Z,583.00
2022-10-14T06:29:14.212Z,614.00
2022-10-14T06:30:14.184Z,655.00
2022-10-14T06:31:14.192Z,593.00
2022-10-14T06:32:14.167Z,523.00
2022-10-14T06:33:14.188Z,559.00
2022-10-14T06:34:14.151Z,557.00
2022-10-14T06:35:14.131Z,563.00
2022-10-14T06:36:14.100Z,506.00
2022-10-14T06:37:14.168Z,503.00
2022-10-14T06:38:14.091Z,548.00
2022-10-14T06:39:14.113Z,581.00
2022-10-14T06:40:14.066Z,521.00
2022-10-14T06:41:14.084Z,464.00
2022-10-14T06:42:14.022Z,526.00
2022-10-14T06:43:14.039Z,532.00
2022-10-14T06:44:14.006Z,504.00
2022-10-14T06:45:14.030Z,475.00
2022-10-14T06:46:13.981Z,325.00
2022-10-14T06:47:14.223Z,336.00
2022-10-14T06:48:13.995Z,502.00
2022-10-14T06:49:13.947Z,452.00
2022-10-14T06:50:13.912Z,519.00
2022-10-14T06:51:13.952Z,462.00
2022-10-14T06:52:13.897Z,472.00
2022-10-14T06:53:13.887Z,508.00
2022-10-14T06:54:13.887Z,515.00
2022-10-14T06:55:13.874Z,467.00
2022-10-14T06:56:13.841Z,539.00
2022-10-14T06:57:13.928Z,483.00
2022-10-14T06:58:13.836Z,373.00
2022-10-14T06:59:13.807Z,434.00
2022-10-14T07:00:13.782Z,426.00
2022-10-14T07:01:13.881Z,396.00
2022-10-14T07:02:13.899Z,479.00
2022-10-14T07:03:13.780Z,357.00
2022-10-14T07:04:13.766Z,610.00
2022-10-14T07:05:13.764Z,584.00
2022-10-14T07:06:13.695Z,475.00
2022-10-14T07:07:13.702Z,593.00
2022-10-14T07:08:15.440Z,619.00
2022-10-14T07:09:13.715Z,747.00
2022-10-14T07:10:13.657Z,721.00
2022-10-14T07:11:13.650Z,729.00
2022-10-14T07:12:13.616Z,731.00
2022-10-14T07:13:13.623Z,750.00
2022-10-14T07:14:13.677Z,672.00
2022-10-14T07:15:13.643Z,553.00
2022-10-14T07:16:13.566Z,853.00
2022-10-14T07:17:13.598Z,610.00
2022-10-14T07:18:13.574Z,545.00
2022-10-14T07:19:13.536Z,710.00
2022-10-14T07:20:13.516Z,863.00
2022-10-14T07:21:13.557Z,801.00
2022-10-14T07:22:13.499Z,839.00
2022-10-14T07:23:13.713Z,944.00
2022-10-14T07:24:13.527Z,1009.00
2022-10-14T07:25:13.525Z,1179.00
2022-10-14T07:26:13.446Z,782.00
2022-10-14T07:27:13.458Z,800.00
2022-10-14T07:28:13.429Z,941.00
2022-10-14T07:29:13.434Z,594.00
2022-10-14T07:30:16.662Z,715.00
2022-10-14T07:31:13.380Z,855.00
2022-10-14T07:32:13.374Z,763.00
2022-10-14T07:33:13.406Z,948.00
2022-10-14T07:34:13.405Z,886.00
2022-10-14T07:35:13.308Z,846.00
2022-10-14T07:36:15.067Z,811.00
2022-10-14T07:37:13.290Z,847.00
2022-10-14T07:38:13.319Z,828.00
2022-10-14T07:39:13.269Z,1144.00
2022-10-14T07:40:13.275Z,1054.00
2022-10-14T07:41:13.238Z,1051.00
2022-10-14T07:42:13.306Z,1053.00
2022-10-14T07:43:13.219Z,996.00
2022-10-14T07:44:13.256Z,1238.00
2022-10-14T07:45:13.182Z,1259.00
2022-10-14T07:46:13.176Z,1190.00
2022-10-14T07:47:13.178Z,1564.00
2022-10-14T07:48:13.170Z,1369.00
2022-10-14T07:49:13.170Z,1416.00
2022-10-14T07:50:13.133Z,1320.00
2022-10-14T07:51:13.128Z,1139.00
2022-10-14T07:52:13.122Z,1029.00
2022-10-14T07:53:13.078Z,1006.00
2022-10-14T07:54:13.078Z,1123.00
2022-10-14T07:55:13.085Z,998.00
2022-10-14T07:56:13.059Z,1158.00
2022-10-14T07:57:13.027Z,953.00
2022-10-14T07:58:13.023Z,897.00
2022-10-14T07:59:12.998Z,991.00
2022-10-14T08:00:13.127Z,1251.00
2022-10-14T08:01:13.005Z,1282.00
2022-10-14T08:02:13.029Z,1202.00
2022-10-14T08:03:12.960Z,1195.00
2022-10-14T08:04:12.989Z,1059.00
2022-10-14T08:05:36.374Z,1231.00
2022-10-14T08:06:12.952Z,1172.00
2022-10-14T08:07:12.917Z,1440.00
2022-10-14T08:08:12.896Z,1449.00
2022-10-14T08:09:12.942Z,1483.00
2022-10-14T08:10:12.870Z,1552.00
2022-10-14T08:11:12.874Z,1708.00
2022-10-14T08:12:12.834Z,1980.00
2022-10-14T08:13:12.828Z,1685.00
2022-10-14T08:14:12.825Z,1699.00
2022-10-14T08:15:12.773Z,2092.00
2022-10-14T08:16:12.836Z,2058.00
2022-10-14T08:17:12.775Z,1629.00
2022-10-14T08:18:12.772Z,1672.00
2022-10-14T08:19:14.408Z,1503.00
2022-10-14T08:20:12.761Z,1103.00
2022-10-14T08:21:12.699Z,1458.00
2022-10-14T08:22:12.743Z,1463.00
2022-10-14T08:23:16.150Z,1259.00
2022-10-14T08:24:12.717Z,1115.00
2022-10-14T08:25:12.656Z,1746.00
2022-10-14T08:26:12.895Z,1368.00
2022-10-14T08:27:12.870Z,1761.00
2022-10-14T08:28:12.657Z,1371.00
2022-10-14T08:29:12.608Z,1742.00
2022-10-14T08:30:12.631Z,1748.00
2022-10-14T08:31:12.585Z,1508.00
2022-10-14T08:32:12.586Z,1519.00
2022-10-14T08:33:12.589Z,1996.00
2022-10-14T08:34:12.545Z,1788.00
2022-10-14T08:35:12.573Z,1625.00
2022-10-14T08:36:12.542Z,1650.00
2022-10-14T08:37:12.487Z,1370.00
2022-10-14T08:38:12.481Z,1523.00
2022-10-14T08:39:12.498Z,1259.00
2022-10-14T08:40:12.476Z,1551.00
2022-10-14T08:41:12.437Z,1400.00
2022-10-14T08:42:12.437Z,1705.00
2022-10-14T08:43:12.608Z,1656.00
2022-10-14T08:44:12.440Z,1429.00
2022-10-14T08:45:12.380Z,1780.00
2022-10-14T08:46:12.420Z,1628.00
2022-10-14T08:47:12.355Z,1541.00
2022-10-14T08:48:12.354Z,1704.00
2022-10-14T08:49:12.357Z,1867.00
2022-10-14T08:50:12.368Z,1554.00
2022-10-14T08:51:12.313Z,1611.00
2022-10-14T08:52:12.318Z,1448.00
2022-10-14T08:53:12.280Z,1440.00
2022-10-14T08:54:12.281Z,1571.00
2022-10-14T08:55:12.304Z,1130.00
2022-10-14T08:56:12.251Z,1146.00
2022-10-14T08:57:12.233Z,1149.00
2022-10-14T08:58:12.415Z,1064.00
2022-10-14T08:59:12.195Z,1152.00
2022-10-14T09:00:12.195Z,1036.00
2022-10-14T09:01:13.511Z,1099.00
2022-10-14T09:02:12.171Z,1229.00
2022-10-14T09:03:12.175Z,1264.00
2022-10-14T09:04:12.185Z,1171.00
2022-10-14T09:05:12.110Z,1006.00
2022-10-14T09:06:12.135Z,1027.00
2022-10-14T09:07:12.083Z,1345.00
2022-10-14T09:08:12.098Z,979.00
2022-10-14T09:09:12.071Z,1026.00
2022-10-14T09:10:12.061Z,1128.00
2022-10-14T09:11:12.044Z,1698.00
2022-10-14T09:12:12.073Z,1561.00
2022-10-14T09:13:12.014Z,1302.00
2022-10-14T09:14:12.017Z,1195.00
2022-10-14T09:15:11.978Z,1380.00
2022-10-14T09:16:11.976Z,1258.00
2022-10-14T09:18:11.973Z,1207.00
2022-10-14T09:19:11.929Z,966.00
2022-10-14T09:20:11.928Z,1077.00
2022-10-14T09:21:18.454Z,1284.00
2022-10-14T09:22:11.934Z,1599.00
2022-10-14T09:23:11.923Z,1732.00
2022-10-14T09:24:11.874Z,1643.00
2022-10-14T09:25:11.839Z,1564.00
2022-10-14T09:26:11.843Z,1475.00
2022-10-14T09:27:11.824Z,1501.00
2022-10-14T09:28:11.873Z,1940.00
2022-10-14T09:29:11.805Z,1964.00
2022-10-14T09:30:11.795Z,2132.00
2022-10-14T09:31:11.768Z,1531.00
2022-10-14T09:32:11.777Z,1941.00
2022-10-14T09:33:11.738Z,1779.00
2022-10-14T09:34:11.777Z,2284.00
2022-10-14T09:35:11.746Z,1568.00
2022-10-14T09:36:11.734Z,2438.00
2022-10-14T09:37:11.690Z,2671.00
2022-10-14T09:38:11.797Z,1969.00
2022-10-14T09:39:11.734Z,2279.00
2022-10-14T09:40:11.686Z,1875.00
2022-10-14T09:41:11.689Z,1606.00
2022-10-14T09:42:11.708Z,1299.00
2022-10-14T09:43:11.617Z,1345.00
2022-10-14T09:44:11.649Z,1316.00
2022-10-14T09:45:11.619Z,1368.00
2022-10-14T09:46:11.597Z,1410.00
2022-10-14T09:47:13.080Z,1393.00
2022-10-14T09:48:11.549Z,1441.00
2022-10-14T09:49:11.529Z,1254.00
2022-10-14T09:50:11.557Z,1356.00
2022-10-14T09:51:11.497Z,1293.00
2022-10-14T09:52:11.591Z,1238.00
2022-10-14T09:53:11.489Z,1393.00
2022-10-14T09:54:11.483Z,1449.00
2022-10-14T09:55:11.471Z,1315.00
2022-10-14T09:56:11.473Z,2087.00
2022-10-14T09:57:11.419Z,1811.00
2022-10-14T09:58:11.442Z,1797.00
2022-10-14T09:59:11.389Z,1584.00
2022-10-14T10:00:11.378Z,1951.00
2022-10-14T10:01:11.501Z,2593.00
2022-10-14T10:02:11.362Z,2740.00
2022-10-14T10:03:16.253Z,2226.00
2022-10-14T10:04:11.376Z,1819.00
2022-10-14T10:05:11.317Z,1713.00
2022-10-14T10:06:11.347Z,1802.00
2022-10-14T10:07:11.305Z,1497.00
2022-10-14T10:08:11.403Z,1733.00
2022-10-14T10:09:11.341Z,1598.00
2022-10-14T10:10:11.340Z,1529.00
2022-10-14T10:11:11.219Z,1779.00
2022-10-14T10:12:11.282Z,1567.00
2022-10-14T10:13:11.238Z,2029.00
2022-10-14T10:14:11.217Z,1701.00
2022-10-14T10:15:11.190Z,1895.00
2022-10-14T10:16:11.177Z,1932.00
2022-10-14T10:17:11.179Z,2058.00
2022-10-14T10:18:11.183Z,1940.00
2022-10-14T10:19:11.171Z,1868.00
2022-10-14T10:20:11.116Z,1537.00
2022-10-14T10:21:11.191Z,2198.00
2022-10-14T10:22:11.127Z,2086.00
2022-10-14T10:23:11.102Z,2554.00
2022-10-14T10:24:11.155Z,2118.00
2022-10-14T10:25:11.065Z,2196.00
2022-10-14T10:26:11.083Z,2179.00
2022-10-14T10:27:11.035Z,2000.00
2022-10-14T10:28:11.040Z,1642.00
2022-10-14T10:29:11.044Z,1746.00
2022-10-14T10:30:11.034Z,2260.00
2022-10-14T10:31:10.965Z,1686.00
2022-10-14T10:32:10.972Z,1735.00
2022-10-14T10:33:10.933Z,1601.00
2022-10-14T10:34:10.975Z,1732.00
2022-10-14T10:35:10.919Z,1538.00
2022-10-14T10:36:11.008Z,1370.00
2022-10-14T10:37:10.904Z,1189.00
2022-10-14T10:38:10.945Z,1481.00
2022-10-14T10:39:10.876Z,1445.00
2022-10-14T10:40:10.876Z,1333.00
2022-10-14T10:41:10.840Z,1726.00
2022-10-14T10:42:10.841Z,2075.00
2022-10-14T10:43:10.803Z,1919.00
2022-10-14T10:44:10.835Z,2091.00
2022-10-14T10:45:10.800Z,2094.00
2022-10-14T10:46:10.818Z,1931.00
2022-10-14T10:47:10.785Z,2218.00
2022-10-14T10:48:10.770Z,2058.00
2022-10-14T10:49:10.721Z,1634.00
2022-10-14T10:50:10.749Z,2360.00
2022-10-14T10:51:10.726Z,1620.00
2022-10-14T10:52:10.698Z,1833.00
2022-10-14T10:53:10.667Z,1943.00
2022-10-14T10:54:10.712Z,1575.00
2022-10-14T10:55:10.668Z,2196.00
2022-10-14T10:56:10.684Z,1417.00
2022-10-14T10:57:10.712Z,2019.00
2022-10-14T10:58:10.630Z,1766.00
2022-10-14T10:59:10.635Z,1659.00
2022-10-14T11:00:10.654Z,1702.00
2022-10-14T11:01:10.613Z,1794.00
2022-10-14T11:02:10.598Z,1773.00
2022-10-14T11:03:10.543Z,1304.00
2022-10-14T11:04:10.675Z,1803.00
2022-10-14T11:05:11.347Z,1950.00
2022-10-14T11:06:10.587Z,1678.00
2022-10-14T11:07:10.514Z,1214.00
2022-10-14T11:08:10.492Z,1348.00
2022-10-14T11:09:10.476Z,1241.00
2022-10-14T11:10:10.468Z,1002.00
2022-10-14T11:11:10.433Z,1131.00
2022-10-14T11:12:10.430Z,1109.00
2022-10-14T11:13:10.462Z,935.00
2022-10-14T11:14:10.403Z,1041.00
2022-10-14T11:15:10.393Z,1036.00
2022-10-14T11:16:10.521Z,1093.00
2022-10-14T11:17:10.352Z,1709.00
2022-10-14T11:18:10.396Z,1089.00
2022-10-14T11:19:12.380Z,1637.00
2022-10-14T11:20:10.339Z,1531.00
2022-10-14T11:21:10.316Z,1708.00
2022-10-14T11:22:10.315Z,2163.00
2022-10-14T11:23:10.294Z,1456.00
2022-10-14T11:24:10.358Z,1830.00
2022-10-14T11:25:10.270Z,2188.00
2022-10-14T11:26:10.263Z,1922.00
2022-10-14T11:27:10.210Z,1860.00
2022-10-14T11:28:10.233Z,2212.00
2022-10-14T11:29:10.273Z,2497.00
2022-10-14T11:30:10.187Z,2027.00
2022-10-14T11:31:10.205Z,2104.00
2022-10-14T11:32:10.150Z,2232.00
2022-10-14T11:33:10.125Z,2436.00
2022-10-14T11:34:10.166Z,1834.00
2022-10-14T11:35:10.132Z,2216.00
2022-10-14T11:36:10.097Z,2061.00
2022-10-14T11:37:10.096Z,1859.00
2022-10-14T11:38:10.087Z,2445.00
2022-10-14T11:39:10.060Z,2120.00
2022-10-14T11:40:10.109Z,2409.00
2022-10-14T11:41:10.036Z,2107.00
2022-10-14T11:42:10.008Z,1875.00
2022-10-14T11:43:10.013Z,2162.00
2022-10-14T11:44:10.011Z,2007.00
2022-10-14T11:45:10.021Z,1935.00
2022-10-14T11:46:09.988Z,2248.00
2022-10-14T11:47:09.964Z,2448.00
2022-10-14T11:48:09.937Z,2147.00
2022-10-14T11:49:09.976Z,2005.00
2022-10-14T11:50:09.909Z,2147.00
2022-10-14T11:51:09.909Z,2013.00
2022-10-14T11:52:09.914Z,2105.00
2022-10-14T11:53:09.890Z,1864.00
2022-10-14T11:54:10.094Z,1570.00
2022-10-14T11:55:12.334Z,1368.00
2022-10-14T11:56:09.828Z,1173.00
2022-10-14T11:57:09.831Z,1197.00
2022-10-14T11:58:09.839Z,1202.00
2022-10-14T11:59:09.804Z,1427.00
2022-10-14T12:00:09.769Z,1521.00
2022-10-14T12:01:09.778Z,1389.00
2022-10-14T12:02:09.782Z,1368.00
2022-10-14T12:03:09.927Z,1740.00
2022-10-14T12:04:09.760Z,2021.00
2022-10-14T12:05:10.418Z,1803.00
2022-10-14T12:06:09.690Z,1933.00
2022-10-14T12:07:09.719Z,2424.00
2022-10-14T12:08:09.669Z,2047.00
2022-10-14T12:09:09.681Z,2030.00
2022-10-14T12:10:09.691Z,1972.00
2022-10-14T12:11:09.658Z,2129.00
2022-10-14T12:12:09.608Z,2411.00
2022-10-14T12:13:09.614Z,1872.00
2022-10-14T12:14:09.630Z,1799.00
2022-10-14T12:15:09.656Z,1850.00
2022-10-14T12:16:09.853Z,1537.00
2022-10-14T12:17:09.987Z,1909.00
2022-10-14T12:18:09.528Z,1485.00
2022-10-14T12:19:09.527Z,1539.00
2022-10-14T12:20:09.534Z,1592.00
2022-10-14T12:21:09.507Z,1413.00
2022-10-14T12:22:09.534Z,1146.00
2022-10-14T12:23:09.489Z,1318.00
2022-10-14T12:24:10.416Z,1234.00
2022-10-14T12:25:09.453Z,1947.00
2022-10-14T12:26:09.433Z,1432.00
2022-10-14T12:27:09.419Z,1385.00
2022-10-14T12:28:09.478Z,1527.00
2022-10-14T12:29:09.464Z,1616.00
2022-10-14T12:30:09.367Z,1296.00
2022-10-14T12:31:09.428Z,1075.00
2022-10-14T12:32:09.341Z,1204.00
2022-10-14T12:33:09.394Z,780.00
2022-10-14T12:34:09.600Z,864.00
2022-10-14T12:35:09.318Z,1399.00
2022-10-14T12:36:09.283Z,1873.00
2022-10-14T12:37:09.377Z,1469.00
2022-10-14T12:38:09.329Z,1470.00
2022-10-14T12:39:09.258Z,1625.00
2022-10-14T12:40:09.308Z,1816.00
2022-10-14T12:41:09.247Z,1649.00
2022-10-14T12:42:09.311Z,2054.00